Time;durP1;ratioP1;P1;durP2;ratioP2;P2;SDS_P1;SDS_P2;PMS_P1;PMS_P2;Temp;Humidity;BMP_temperature;BMP_pressure;BME280_temperature;BME280_humidity;BME280_pressure;Samples;Min_cycle;Max_cycle;Signal;HPM_P1;HPM_P2
2022/05/07 00:01:04;;;;;;;6.40;1.98;;;;;;;7.11;100.00;100977.34;10370840;28;20053;-73
2022/05/07 00:06:05;;;;;;;9.10;2.28;;;;;;;7.18;100.00;100982.00;10390212;28;20053;-74
2022/05/07 00:11:06;;;;;;;9.55;2.28;;;;;;;6.99;100.00;100934.31;10411869;28;20045;-74
2022/05/07 00:21:27;;;;;;;10.77;2.53;;;;;;;7.29;100.00;100944.91;10419905;28;20053;-74
2022/05/07 00:26:27;;;;;;;7.05;2.38;;;;;;;7.40;100.00;100929.94;10419349;28;20037;-74
2022/05/07 00:31:28;;;;;;;10.85;2.80;;;;;;;7.22;100.00;100875.06;10418747;28;20046;-74
2022/05/07 00:36:29;;;;;;;7.82;2.10;;;;;;;7.64;100.00;100932.25;10433765;28;20041;-74
2022/05/07 00:41:30;;;;;;;11.73;2.28;;;;;;;8.12;100.00;101001.16;10418087;28;20037;-75
2022/05/07 00:46:31;;;;;;;12.18;2.60;;;;;;;8.13;100.00;101001.97;10417504;28;20115;-74
2022/05/07 00:51:34;;;;;;;11.80;2.70;;;;;;;8.10;100.00;100995.13;10433341;28;20041;-74
2022/05/07 00:56:37;;;;;;;6.93;2.78;;;;;;;8.15;100.00;100995.56;10417947;28;20061;-73
2022/05/07 01:01:38;;;;;;;7.22;2.72;;;;;;;7.54;100.00;100887.28;10416798;28;20084;-74
2022/05/07 01:06:39;;;;;;;10.40;2.47;;;;;;;7.70;100.00;100899.97;10416037;28;20476;-74
2022/05/07 01:11:41;;;;;;;9.50;2.40;;;;;;;8.18;100.00;100990.00;10416536;28;20500;-74
2022/05/07 01:16:42;;;;;;;11.43;2.72;;;;;;;7.74;100.00;100918.06;10416969;28;20551;-74
2022/05/07 01:21:42;;;;;;;6.65;2.72;;;;;;;8.23;100.00;100997.56;10416418;28;20099;-74
2022/05/07 01:26:43;;;;;;;8.23;2.40;;;;;;;8.12;100.00;100982.63;10416168;28;20045;-74
2022/05/07 01:31:44;;;;;;;5.90;2.78;;;;;;;7.46;100.00;100872.06;10415491;28;20065;-74
2022/05/07 01:36:45;;;;;;;7.30;3.05;;;;;;;8.21;100.00;101010.91;10416175;28;20045;-74
2022/05/07 01:41:46;;;;;;;6.97;2.85;;;;;;;7.40;100.00;100879.72;10416008;28;20563;-74
2022/05/07 01:52:07;;;;;;;10.20;3.72;;;;;;;8.08;100.00;100991.81;10415485;28;20076;-75
2022/05/07 01:57:08;;;;;;;6.18;3.65;;;;;;;8.24;100.00;101023.03;10415664;28;20448;-74
2022/05/07 02:02:08;;;;;;;10.55;3.95;;;;;;;7.99;100.00;100967.00;10414415;28;20037;-74
2022/05/07 02:07:09;;;;;;;8.43;4.90;;;;;;;7.11;100.00;100832.88;10414352;28;20037;-74
2022/05/07 02:12:10;;;;;;;7.82;4.18;;;;;;;8.27;100.00;101014.81;10414446;28;20076;-74
2022/05/07 02:17:11;;;;;;;10.48;6.43;;;;;;;8.20;100.00;101001.31;10414422;28;20068;-74
2022/05/07 02:22:12;;;;;;;7.55;4.38;;;;;;;8.13;100.00;100989.56;10414441;28;20048;-74
2022/05/07 02:27:13;;;;;;;21.00;4.35;;;;;;;8.40;100.00;101028.66;10414803;28;20041;-74
2022/05/07 02:32:14;;;;;;;8.73;4.40;;;;;;;8.30;100.00;101016.38;10414717;28;20103;-74
2022/05/07 02:37:15;;;;;;;7.00;3.67;;;;;;;7.96;100.00;100953.22;10414345;28;20136;-73
2022/05/07 02:42:33;;;;;;;9.18;4.30;;;;;;;8.32;100.00;101032.97;10413331;28;20488;-74
2022/05/07 02:47:36;;;;;;;8.00;4.93;;;;;;;8.27;100.00;101011.34;10429694;28;20048;-74
2022/05/07 02:52:38;;;;;;;6.18;4.03;;;;;;;8.36;100.00;101029.88;10412881;28;20406;-74
2022/05/07 02:57:39;;;;;;;6.50;3.38;;;;;;;7.66;100.00;100909.16;10413386;28;20056;-74
2022/05/07 03:02:39;;;;;;;4.93;3.85;;;;;;;8.38;100.00;101021.81;10412907;28;20041;-74
2022/05/07 03:07:40;;;;;;;8.73;4.03;;;;;;;7.42;100.00;100854.81;10411237;28;20405;-75
2022/05/07 03:12:41;;;;;;;6.43;3.70;;;;;;;8.41;100.00;101021.59;10412478;28;20041;-74
2022/05/07 03:17:42;;;;;;;8.80;3.60;;;;;;;8.17;100.00;100966.34;10404672;28;20500;-74
2022/05/07 03:22:43;;;;;;;5.28;3.45;;;;;;;8.44;100.00;101010.72;10375460;28;20050;-74
2022/05/07 03:27:44;;;;;;;7.07;3.70;;;;;;;7.58;100.00;100870.16;10394347;28;20044;-75
2022/05/07 03:32:45;;;;;;;5.70;3.72;;;;;;;8.23;100.00;100966.63;10381760;28;20049;-75
2022/05/07 03:37:45;;;;;;;8.10;3.38;;;;;;;8.24;100.00;100968.28;10370693;28;20448;-75
2022/05/07 03:42:46;;;;;;;6.43;3.50;;;;;;;7.78;100.00;100879.81;10372295;28;20128;-74
2022/05/07 03:47:47;;;;;;;8.02;3.35;;;;;;;8.65;100.00;101021.19;10395072;28;20071;-75
2022/05/07 03:58:15;;;;;;;7.22;3.30;;;;;;;8.69;100.00;101019.91;10379974;28;20092;-74
2022/05/07 04:03:15;;;;;;;5.13;3.50;;;;;;;7.60;100.00;100857.66;10377742;28;20121;-74
2022/05/07 04:08:16;;;;;;;5.20;3.47;;;;;;;8.66;100.00;101036.09;10377102;28;20554;-73
2022/05/07 04:13:17;;;;;;;8.57;2.88;;;;;;;8.69;100.00;101035.81;10379003;28;20037;-73
2022/05/07 04:18:18;;;;;;;7.10;3.13;;;;;;;8.73;100.00;101037.19;10382094;28;20041;-74
2022/05/07 04:23:19;;;;;;;6.85;3.35;;;;;;;8.79;100.00;101022.56;10418617;28;20053;-73
2022/05/07 04:28:20;;;;;;;4.88;2.63;;;;;;;8.56;100.00;100983.13;10418774;28;20052;-74
2022/05/07 04:33:21;;;;;;;4.80;3.03;;;;;;;8.63;100.00;100989.53;10418539;28;20124;-74
2022/05/07 04:38:22;;;;;;;6.40;2.60;;;;;;;8.23;100.00;100905.75;10418862;28;20045;-74
2022/05/07 04:43:22;;;;;;;5.50;2.22;;;;;;;7.21;100.00;100724.56;10418675;28;20393;-73
2022/05/07 04:48:23;;;;;;;5.50;2.38;;;;;;;9.13;100.00;101029.09;10418029;28;20143;-73
2022/05/07 04:53:24;;;;;;;4.47;2.00;;;;;;;9.00;100.00;101002.03;10416709;28;20061;-73
2022/05/07 04:58:25;;;;;;;3.25;2.10;;;;;;;8.78;100.00;100938.78;10417444;28;20525;-73
2022/05/07 05:03:26;;;;;;;4.88;1.70;;;;;;;9.45;100.00;101027.91;10417241;28;20049;-73
2022/05/07 05:08:30;;;;;;;8.82;2.30;;;;;;;9.46;100.00;101029.59;10417221;28;20393;-73
2022/05/07 05:13:31;;;;;;;6.75;2.42;;;;;;;9.29;100.00;100991.38;10414114;28;20037;-76
2022/05/07 05:18:32;;;;;;;5.50;2.00;;;;;;;9.21;100.00;101019.59;10417343;28;20136;-75
2022/05/07 05:23:33;;;;;;;7.20;2.67;;;;;;;8.72;100.00;100939.34;10408844;28;20494;-75
2022/05/07 05:28:35;;;;;;;5.63;1.90;;;;;;;9.26;100.00;101044.69;10403514;28;20037;-74
2022/05/07 05:33:36;;;;;;;7.40;1.98;;;;;;;8.81;99.54;100983.53;10379559;28;20153;-79
2022/05/07 05:38:38;;;;;;;7.57;1.42;;;;;;;8.88;98.84;101019.94;10380153;28;20129;-73
2022/05/07 05:43:40;;;;;;;8.07;1.85;;;;;;;8.75;97.39;100998.16;10374654;28;20041;-75
2022/05/07 05:48:41;;;;;;;6.68;1.77;;;;;;;8.93;97.39;101038.03;10374959;28;20455;-76
2022/05/07 05:53:41;;;;;;;7.68;2.15;;;;;;;8.62;98.23;100961.38;10373463;28;20057;-76
2022/05/07 05:58:42;;;;;;;10.05;2.22;;;;;;;8.61;97.41;100964.97;10374125;28;20049;-74
2022/05/07 06:03:43;;;;;;;9.90;2.00;;;;;;;8.96;96.81;101007.78;10374810;28;20042;-74
2022/05/07 06:08:44;;;;;;;4.45;1.60;;;;;;;9.14;96.98;100998.13;10374103;28;20038;-75
2022/05/07 06:13:47;;;;;;;7.10;2.10;;;;;;;8.64;96.79;100890.53;10382260;28;20547;-75
2022/05/07 06:18:47;;;;;;;6.53;2.15;;;;;;;9.27;96.50;100963.34;10413923;28;20054;-76
2022/05/07 06:23:48;;;;;;;10.32;1.98;;;;;;;9.02;96.11;100902.03;10409552;28;20029;-76
2022/05/07 06:28:49;;;;;;;12.27;1.88;;;;;;;9.59;95.24;100981.50;10376209;28;20041;-76
2022/05/07 06:33:50;;;;;;;5.40;1.98;;;;;;;9.69;95.42;100997.38;10396413;28;20048;-74
2022/05/07 06:38:51;;;;;;;4.03;1.50;;;;;;;9.37;93.60;100927.88;10414080;28;20374;-74
2022/05/07 06:43:51;;;;;;;5.53;1.70;;;;;;;9.21;90.49;100940.88;10372421;28;20038;-73
2022/05/07 06:48:52;;;;;;;6.60;1.80;;;;;;;9.37;91.06;100966.81;10372507;28;20034;-74
2022/05/07 06:53:53;;;;;;;6.82;1.65;;;;;;;8.76;88.25;100887.75;10372069;28;20081;-73
2022/05/07 06:58:54;;;;;;;3.70;1.50;;;;;;;9.02;87.73;100941.78;10372519;28;20041;-73
2022/05/07 07:03:54;;;;;;;12.85;2.08;;;;;;;9.60;88.86;101030.94;10372933;28;20049;-73
2022/05/07 07:08:56;;;;;;;2.95;1.17;;;;;;;9.30;87.14;101006.34;10371938;28;20049;-74
2022/05/07 07:13:57;;;;;;;8.43;1.90;;;;;;;9.41;86.44;101055.69;10372495;28;20073;-72
2022/05/07 07:18:58;;;;;;;14.07;2.10;;;;;;;9.38;86.87;101040.91;10371533;28;20073;-73
2022/05/07 07:23:59;;;;;;;6.65;3.42;;;;;;;9.31;87.00;101023.91;10371618;28;20498;-72
2022/05/07 07:29:00;;;;;;;8.32;2.38;;;;;;;9.35;86.69;101021.78;10379436;28;20125;-72
2022/05/07 07:34:02;;;;;;;8.30;3.90;;;;;;;9.36;86.02;101032.28;10380279;28;20054;-72
2022/05/07 07:39:07;;;;;;;8.63;2.60;;;;;;;9.38;86.23;101017.03;10379429;28;20480;-72
2022/05/07 07:44:08;;;;;;;7.88;2.50;;;;;;;9.85;86.61;101056.00;10379316;28;20056;-71
2022/05/07 07:49:09;;;;;;;3.20;1.50;;;;;;;9.92;85.57;101066.84;10379053;28;20121;-71
2022/05/07 07:54:10;;;;;;;4.35;1.55;;;;;;;9.82;81.81;101056.28;10378434;28;20062;-72
2022/05/07 07:59:11;;;;;;;5.22;1.40;;;;;;;9.95;81.64;101053.28;10403732;28;20136;-73
2022/05/07 08:04:13;;;;;;;8.25;1.50;;;;;;;10.10;81.94;101051.81;10414748;28;20090;-74
2022/05/07 08:14:33;;;;;;;4.05;1.70;;;;;;;10.38;81.47;101035.88;10419457;28;20159;-71
2022/05/07 08:19:34;;;;;;;5.13;1.50;;;;;;;10.28;80.75;101009.41;10417975;28;20132;-70
2022/05/07 08:24:36;;;;;;;6.38;1.48;;;;;;;9.83;79.77;100912.00;10418932;28;20080;-72
2022/05/07 08:29:37;;;;;;;4.05;1.55;;;;;;;9.68;78.00;100889.59;10400445;28;20645;-75
2022/05/07 08:34:41;;;;;;;4.15;1.42;;;;;;;10.25;78.75;100954.72;10416352;28;20091;-70
2022/05/07 08:39:42;;;;;;;6.03;1.48;;;;;;;10.55;78.97;100989.91;10416743;28;20045;-71
2022/05/07 08:44:43;;;;;;;14.23;1.67;;;;;;;10.82;79.50;101012.06;10417068;28;20041;-73
2022/05/07 08:49:44;;;;;;;5.30;1.30;;;;;;;10.56;77.74;100985.44;10417854;28;20037;-73
2022/05/07 08:54:48;;;;;;;9.15;2.10;;;;;;;10.52;77.47;101001.66;10417616;28;20156;-73
2022/05/07 08:59:52;;;;;;;6.97;1.77;;;;;;;9.67;76.05;100875.50;10416545;28;20485;-73
2022/05/07 09:04:57;;;;;;;4.83;1.30;;;;;;;9.86;77.60;100905.56;10416909;28;20060;-72
2022/05/07 09:09:58;;;;;;;5.47;1.83;;;;;;;9.99;78.81;100941.38;10418028;28;20122;-71
2022/05/07 09:15:06;;;;;;;4.00;1.52;;;;;;;10.60;78.26;101024.00;10416279;28;20068;-71
2022/05/07 09:20:15;;;;;;;9.10;1.50;;;;;;;8.87;77.57;100768.34;10416885;28;20045;-71
2022/05/07 09:25:21;;;;;;;8.02;1.55;;;;;;;10.54;77.81;101040.56;10414889;28;20120;-71
2022/05/07 09:30:24;;;;;;;4.30;2.20;;;;;;;9.28;77.56;100832.47;10416572;28;20044;-73
2022/05/07 09:40:47;;;;;;;6.25;1.88;;;;;;;10.20;76.88;100943.75;10376729;28;20052;-73
2022/05/07 09:45:48;;;;;;;4.72;2.47;;;;;;;10.51;76.22;100984.06;10374526;28;20045;-72
2022/05/07 09:50:49;;;;;;;5.28;1.80;;;;;;;10.91;76.39;101019.13;10413464;28;20050;-71
2022/05/07 10:01:22;;;;;;;7.97;1.95;;;;;;;11.37;74.90;101025.97;10412948;28;20046;-72
2022/05/07 10:06:23;;;;;;;4.57;1.85;;;;;;;11.45;75.31;101008.38;10411760;28;20086;-74
2022/05/07 10:11:25;;;;;;;5.13;2.10;;;;;;;11.81;74.76;101009.06;10412657;28;20512;-72
2022/05/07 10:16:30;;;;;;;7.05;3.00;;;;;;;11.86;73.56;100978.31;10408585;28;20558;-73
2022/05/07 10:21:31;;;;;;;4.60;2.00;;;;;;;10.58;73.86;100728.44;10390683;28;20046;-72
2022/05/07 10:26:41;;;;;;;4.82;1.70;;;;;;;12.12;72.02;100948.13;10373391;28;20065;-71
2022/05/07 10:31:45;;;;;;;4.05;2.13;;;;;;;12.16;71.29;100967.28;10405797;28;20041;-72
2022/05/07 10:36:46;;;;;;;4.72;1.88;;;;;;;12.39;70.97;100970.16;10405287;28;20099;-70
2022/05/07 10:41:47;;;;;;;4.30;1.90;;;;;;;12.17;69.37;100921.00;10378755;28;20096;-70
2022/05/07 10:46:48;;;;;;;3.97;2.10;;;;;;;12.41;69.86;100978.78;10413417;28;20099;-71
2022/05/07 10:51:52;;;;;;;2.63;1.45;;;;;;;12.16;68.80;100953.97;10407066;28;20046;-71
2022/05/07 10:56:55;;;;;;;7.50;2.00;;;;;;;12.07;68.35;100993.03;10396008;28;20068;-71
2022/05/07 11:02:08;;;;;;;5.65;2.17;;;;;;;12.20;67.79;101014.72;10413341;28;20045;-72
2022/05/07 11:07:09;;;;;;;6.03;1.55;;;;;;;11.41;68.75;100896.94;10406968;28;20135;-71
2022/05/07 11:12:17;;;;;;;6.72;2.17;;;;;;;11.93;68.74;101005.13;10409661;28;20442;-71
2022/05/07 11:17:29;;;;;;;7.47;2.78;;;;;;;11.54;69.26;100935.59;10413089;28;20103;-73
2022/05/07 11:22:30;;;;;;;8.43;4.10;;;;;;;11.94;70.11;100988.19;10412668;28;20045;-71
2022/05/07 11:27:34;;;;;;;7.00;2.85;;;;;;;11.97;69.52;100969.22;10389928;28;20483;-72
2022/05/07 11:32:40;;;;;;;14.73;2.10;;;;;;;11.96;68.71;100956.06;10411470;28;20416;-73
2022/05/07 11:37:45;;;;;;;4.15;1.83;;;;;;;11.94;68.86;100993.50;10412222;28;20048;-69
2022/05/07 11:42:49;;;;;;;7.75;2.10;;;;;;;11.81;69.46;100988.59;10413184;28;20049;-70
2022/05/07 11:48:05;;;;;;;4.68;2.00;;;;;;;11.58;70.01;100929.78;10411576;28;20045;-70
2022/05/07 11:56:09;;;;;;;9.45;2.67;;;;;;;12.01;69.09;100948.44;10616639;27;20966;-70
2022/05/07 12:01:24;;;;;;;5.07;1.60;;;;;;;11.95;66.49;100930.44;10616726;27;20051;-68
2022/05/07 12:06:30;;;;;;;5.82;2.95;;;;;;;12.06;66.64;100976.25;10616253;27;20080;-69
2022/05/07 12:11:31;;;;;;;5.18;2.35;;;;;;;11.24;67.60;100850.00;10615111;27;20074;-69
2022/05/07 12:32:43;;;;;;;10.27;1.80;;;;;;;11.78;66.87;100932.19;10405887;28;20132;-71
2022/05/07 12:37:44;;;;;;;4.35;1.50;;;;;;;11.58;66.76;100902.34;10405868;28;20038;-69
2022/05/07 12:42:45;;;;;;;8.13;2.80;;;;;;;11.30;66.45;100861.81;10406103;28;20037;-74
2022/05/07 12:47:46;;;;;;;4.82;1.67;;;;;;;11.04;66.82;100820.19;10406391;28;20038;-75
2022/05/07 12:52:47;;;;;;;3.08;1.52;;;;;;;11.90;67.61;100948.72;10419079;28;20057;-70
2022/05/07 12:57:48;;;;;;;4.60;1.40;;;;;;;11.77;68.30;100911.88;10406235;28;20041;-72
2022/05/07 13:02:52;;;;;;;9.18;1.70;;;;;;;11.46;68.71;100872.53;10402320;28;20092;-72
2022/05/07 13:07:53;;;;;;;8.27;2.38;;;;;;;12.18;68.83;100936.00;10414802;28;20048;-72
2022/05/07 13:12:54;;;;;;;5.15;2.30;;;;;;;12.12;68.48;100916.16;10418676;28;20045;-71
2022/05/07 13:17:57;;;;;;;6.82;3.17;;;;;;;12.12;68.08;100908.19;10417445;28;20038;-72
2022/05/07 13:22:57;;;;;;;4.97;2.38;;;;;;;11.99;68.22;100890.00;10417788;28;20037;-72
2022/05/07 13:27:58;;;;;;;4.55;2.13;;;;;;;12.32;68.36;100948.66;10419009;28;20071;-72
2022/05/07 13:32:59;;;;;;;6.57;3.10;;;;;;;12.22;68.79;100943.47;10418307;28;20068;-75
2022/05/07 13:38:00;;;;;;;7.30;1.40;;;;;;;11.74;69.12;100873.13;10417509;28;20057;-72
2022/05/07 13:43:02;;;;;;;3.15;1.35;;;;;;;12.17;68.99;100961.75;10418068;28;20041;-72
2022/05/07 13:48:04;;;;;;;7.75;1.83;;;;;;;11.13;69.57;100797.13;10417630;28;20049;-71
2022/05/07 13:53:07;;;;;;;4.05;2.08;;;;;;;11.20;70.56;100817.56;10401189;28;20521;-72
2022/05/07 13:58:07;;;;;;;5.38;1.80;;;;;;;11.91;70.69;100958.41;10391215;28;20048;-72
2022/05/07 14:03:08;;;;;;;4.60;1.35;;;;;;;11.51;70.45;100909.28;10392280;28;20041;-70
2022/05/07 14:08:09;;;;;;;5.55;1.33;;;;;;;11.45;70.46;100921.41;10391656;28;20089;-71
2022/05/07 14:13:10;;;;;;;12.55;1.65;;;;;;;11.71;70.83;100981.72;10374991;28;20128;-72
2022/05/07 14:18:11;;;;;;;4.28;1.80;;;;;;;11.54;69.98;100960.34;10374720;28;20133;-71
2022/05/07 14:23:14;;;;;;;8.68;1.90;;;;;;;11.19;70.19;100908.16;10375682;28;20052;-71
2022/05/07 14:28:14;;;;;;;2.47;1.25;;;;;;;11.02;69.66;100901.91;10400779;28;20115;-71
2022/05/07 14:33:16;;;;;;;4.20;1.30;;;;;;;10.65;69.14;100841.91;10415146;28;20211;-71
2022/05/07 14:38:18;;;;;;;2.92;1.10;;;;;;;11.34;69.24;100967.75;10389349;28;20433;-73
2022/05/07 14:43:19;;;;;;;5.68;1.70;;;;;;;10.40;69.87;100827.59;10378848;28;20045;-71
2022/05/07 14:48:20;;;;;;;3.00;1.17;;;;;;;11.12;70.01;100982.38;10391243;28;20100;-71
2022/05/07 14:53:21;;;;;;;4.72;1.67;;;;;;;11.07;70.09;100984.72;10391963;28;20088;-72
2022/05/07 14:58:21;;;;;;;4.78;1.48;;;;;;;10.34;70.42;100873.34;10389988;28;20044;-71
2022/05/07 15:03:22;;;;;;;8.55;1.33;;;;;;;10.33;70.85;100871.69;10392229;28;20549;-72
2022/05/07 15:13:43;;;;;;;10.05;2.00;;;;;;;10.85;71.34;100975.38;10391871;28;20445;-72
2022/05/07 15:18:45;;;;;;;3.45;1.98;;;;;;;10.82;71.11;100970.38;10397199;28;20136;-72
2022/05/07 15:23:46;;;;;;;5.57;2.22;;;;;;;10.42;71.68;100918.59;10391068;28;20056;-73
2022/05/07 15:28:47;;;;;;;21.67;2.80;;;;;;;10.79;71.99;100977.84;10391630;28;20045;-74
2022/05/07 15:39:08;;;;;;;6.65;2.00;;;;;;;10.47;72.06;100934.91;10391228;28;20041;-71
2022/05/07 15:44:08;;;;;;;5.30;2.20;;;;;;;10.04;72.42;100878.03;10380055;28;20045;-71
2022/05/07 15:49:10;;;;;;;5.97;2.20;;;;;;;10.44;72.68;100953.81;10386412;28;20401;-69
2022/05/07 15:54:11;;;;;;;3.83;1.70;;;;;;;9.92;72.64;100868.63;10387775;28;20421;-73
2022/05/07 15:59:13;;;;;;;5.60;1.83;;;;;;;9.75;73.18;100840.25;10386230;28;20045;-71
2022/05/07 16:04:14;;;;;;;3.13;1.60;;;;;;;9.11;72.96;100733.38;10370081;28;20037;-72
2022/05/07 16:09:15;;;;;;;7.82;3.78;;;;;;;10.70;72.70;100993.69;10370724;28;20524;-72
2022/05/07 16:14:16;;;;;;;7.07;2.45;;;;;;;9.27;71.96;100770.66;10371147;28;20056;-71
2022/05/07 16:19:18;;;;;;;4.75;1.70;;;;;;;10.21;70.26;100923.34;10371233;28;20401;-74
2022/05/07 16:29:38;;;;;;;7.93;1.90;;;;;;;10.11;69.69;100922.56;10382098;28;20132;-71
2022/05/07 16:34:39;;;;;;;7.45;4.57;;;;;;;10.60;69.22;101002.75;10371223;28;20479;-71
2022/05/07 16:39:43;;;;;;;10.77;3.75;;;;;;;10.75;69.14;101041.09;10383670;28;20069;-71
2022/05/07 16:44:43;;;;;;;7.77;2.73;;;;;;;9.96;69.20;100904.53;10378258;28;20042;-71
2022/05/07 16:49:44;;;;;;;12.45;3.17;;;;;;;10.69;68.55;101039.88;10413465;28;20632;-70
2022/05/07 16:54:45;;;;;;;6.38;2.10;;;;;;;10.66;69.75;101042.84;10419519;28;20085;-71
2022/05/07 16:59:46;;;;;;;5.35;2.50;;;;;;;10.10;70.12;100950.94;10430165;28;20557;-71
2022/05/07 17:04:47;;;;;;;6.57;3.92;;;;;;;10.48;70.56;101013.59;10420855;28;20044;-72
2022/05/07 17:09:48;;;;;;;5.50;2.30;;;;;;;9.22;71.36;100806.56;10441019;28;20124;-71
2022/05/07 17:14:49;;;;;;;6.90;2.38;;;;;;;9.67;71.80;100883.47;10457691;28;20051;-72
2022/05/07 17:19:51;;;;;;;10.60;3.15;;;;;;;10.61;73.19;101029.16;10435117;28;20040;-70
2022/05/07 17:24:52;;;;;;;7.35;3.28;;;;;;;10.69;74.91;101065.63;10454157;28;20080;-71
2022/05/07 17:29:53;;;;;;;12.25;3.00;;;;;;;10.34;76.10;101024.72;10442149;28;20041;-71
2022/05/07 17:34:54;;;;;;;4.68;2.70;;;;;;;10.09;76.79;100994.41;10417842;28;20045;-70
2022/05/07 17:39:54;;;;;;;5.60;2.60;;;;;;;10.38;77.82;101047.38;10418423;28;20033;-70
2022/05/07 17:44:55;;;;;;;8.80;3.60;;;;;;;9.57;78.92;100910.06;10416939;28;20047;-70
2022/05/07 17:49:56;;;;;;;8.40;4.03;;;;;;;8.49;79.57;100737.56;10417362;28;20038;-70
2022/05/07 17:54:57;;;;;;;11.65;5.85;;;;;;;10.38;80.37;101038.53;10426280;28;20141;-70
2022/05/07 17:59:58;;;;;;;9.15;6.00;;;;;;;10.31;80.93;101048.94;10434097;28;20053;-70
2022/05/07 18:04:59;;;;;;;10.95;4.20;;;;;;;10.20;81.10;101027.84;10434953;28;20045;-71
2022/05/07 18:10:01;;;;;;;7.65;3.60;;;;;;;9.38;81.30;100897.72;10433156;28;20481;-70
2022/05/07 18:15:02;;;;;;;12.00;3.70;;;;;;;10.23;82.53;101040.84;10440854;28;20044;-70
2022/05/07 18:20:03;;;;;;;7.07;2.85;;;;;;;9.53;82.71;100931.72;10450920;28;20059;-70
2022/05/07 18:25:08;;;;;;;7.55;3.30;;;;;;;9.14;84.21;100870.91;10425557;28;20035;-70
2022/05/07 18:30:09;;;;;;;8.52;3.05;;;;;;;9.51;84.63;100929.22;10426444;28;20140;-70
2022/05/07 18:35:11;;;;;;;6.32;2.75;;;;;;;10.11;85.38;101036.72;10431598;28;20106;-70
2022/05/07 18:45:31;;;;;;;9.77;2.90;;;;;;;10.16;85.08;101022.00;10432392;28;20045;-70
2022/05/07 18:50:32;;;;;;;5.50;2.90;;;;;;;10.01;85.05;100979.22;10437996;28;20045;-70
2022/05/07 19:00:56;;;;;;;3.97;2.13;;;;;;;10.01;84.36;100973.06;10416568;28;20095;-70
2022/05/07 19:05:58;;;;;;;7.15;2.70;;;;;;;10.17;84.42;100989.19;10417936;28;20039;-70
2022/05/07 19:10:59;;;;;;;8.65;2.40;;;;;;;9.29;83.97;100842.09;10419110;28;20398;-70
2022/05/07 19:16:01;;;;;;;6.05;2.28;;;;;;;10.15;84.71;100993.81;10432956;28;20040;-70
2022/05/07 19:21:01;;;;;;;4.55;2.03;;;;;;;9.81;84.97;100927.22;10453575;28;20132;-72
2022/05/07 19:26:03;;;;;;;7.68;2.45;;;;;;;9.71;85.18;100926.44;10424495;28;20124;-71
2022/05/07 19:31:04;;;;;;;8.15;2.85;;;;;;;9.38;85.27;100862.41;10414302;28;20485;-71
2022/05/07 19:36:06;;;;;;;5.30;2.80;;;;;;;9.37;85.52;100866.06;10413899;28;20128;-69
2022/05/07 19:41:06;;;;;;;7.18;3.25;;;;;;;9.45;85.22;100879.38;10412713;28;20045;-70
2022/05/07 19:46:08;;;;;;;10.18;3.80;;;;;;;10.04;85.63;100978.91;10424154;28;20072;-70
2022/05/07 19:51:09;;;;;;;9.10;3.55;;;;;;;8.88;85.41;100788.56;10439107;28;20068;-72
2022/05/07 19:56:11;;;;;;;6.85;3.95;;;;;;;9.98;85.85;100981.31;10422410;28;20085;-72
2022/05/07 20:01:12;;;;;;;7.72;3.20;;;;;;;9.69;85.72;100934.56;10413437;28;20048;-69
2022/05/07 20:06:13;;;;;;;5.47;3.22;;;;;;;8.57;86.17;100741.16;10412979;28;20496;-70
2022/05/07 20:11:13;;;;;;;5.05;3.30;;;;;;;10.06;86.31;100973.47;10411087;28;20039;-70
2022/05/07 20:16:15;;;;;;;6.40;3.10;;;;;;;9.73;86.68;100925.31;10419164;28;20076;-70
2022/05/07 20:26:35;;;;;;;11.30;3.28;;;;;;;9.58;86.65;100890.50;10420462;28;20048;-70
2022/05/07 20:31:35;;;;;;;4.30;2.50;;;;;;;9.54;86.56;100875.88;10419710;28;20034;-69
2022/05/07 20:36:36;;;;;;;3.22;2.35;;;;;;;9.98;86.89;100966.22;10419821;28;20054;-69
2022/05/07 20:41:38;;;;;;;5.32;2.40;;;;;;;9.11;87.18;100820.81;10420190;28;20041;-69
2022/05/07 20:46:38;;;;;;;5.43;2.53;;;;;;;9.98;87.26;100957.44;10420171;28;20056;-70
2022/05/07 20:51:39;;;;;;;4.18;2.40;;;;;;;9.83;87.29;100927.91;10419047;28;20389;-69
2022/05/07 20:56:43;;;;;;;5.95;2.05;;;;;;;9.82;87.01;100934.22;10419060;28;20041;-69
2022/05/07 21:01:47;;;;;;;6.95;2.78;;;;;;;10.04;87.67;100952.38;10419972;28;20049;-70
2022/05/07 21:06:51;;;;;;;6.88;4.00;;;;;;;10.06;87.87;100958.38;10419196;28;20049;-69
2022/05/07 21:11:52;;;;;;;12.60;3.87;;;;;;;9.79;88.62;100930.03;10418754;28;20123;-70
2022/05/07 21:16:53;;;;;;;6.43;2.63;;;;;;;9.00;89.00;100771.50;10418919;28;20126;-69
2022/05/07 21:21:53;;;;;;;7.57;2.80;;;;;;;9.88;89.46;100915.03;10418651;28;20469;-69
2022/05/07 21:26:54;;;;;;;4.18;2.40;;;;;;;9.91;89.93;100922.72;10417300;28;20501;-69
2022/05/07 21:31:55;;;;;;;3.83;2.30;;;;;;;9.78;89.76;100895.69;10418319;28;20128;-70
2022/05/07 21:36:57;;;;;;;4.05;2.28;;;;;;;9.90;89.58;100907.78;10418040;28;20041;-69
2022/05/07 21:41:58;;;;;;;4.57;1.95;;;;;;;9.84;89.07;100887.13;10417270;28;20043;-69
2022/05/07 21:46:59;;;;;;;7.05;2.10;;;;;;;9.67;89.28;100849.00;10416976;28;20120;-69
2022/05/07 21:52:01;;;;;;;3.50;2.03;;;;;;;9.96;89.50;100895.69;10417085;28;20054;-69
2022/05/07 21:57:02;;;;;;;11.77;2.13;;;;;;;8.84;89.77;100702.41;10417714;28;20045;-69
2022/05/07 22:02:03;;;;;;;6.47;2.40;;;;;;;9.79;89.73;100854.91;10417135;28;20497;-69
2022/05/07 22:07:04;;;;;;;4.90;2.08;;;;;;;9.98;89.60;100885.78;10416377;28;20083;-69
2022/05/07 22:12:05;;;;;;;4.10;2.38;;;;;;;9.90;89.90;100878.59;10415419;28;20504;-69
2022/05/07 22:17:06;;;;;;;6.65;2.10;;;;;;;9.92;89.73;100884.56;10415079;28;20049;-69
2022/05/07 22:22:07;;;;;;;4.13;2.08;;;;;;;9.49;89.65;100797.75;10415730;28;20044;-69
2022/05/07 22:27:08;;;;;;;5.28;2.03;;;;;;;9.04;89.13;100727.00;10416486;28;20175;-69
2022/05/07 22:32:09;;;;;;;5.28;2.05;;;;;;;9.83;89.01;100848.31;10415462;28;20119;-69
2022/05/07 22:37:10;;;;;;;6.22;2.05;;;;;;;9.48;88.78;100777.50;10414966;28;20073;-70
2022/05/07 22:42:10;;;;;;;5.55;2.03;;;;;;;9.75;88.72;100808.44;10416365;28;20103;-69
2022/05/07 22:47:11;;;;;;;3.97;2.15;;;;;;;9.92;88.31;100863.31;10415428;28;20124;-69
2022/05/07 22:52:12;;;;;;;4.15;2.15;;;;;;;9.81;88.61;100853.78;10414156;28;20057;-69
2022/05/07 22:57:13;;;;;;;3.42;2.40;;;;;;;9.82;89.07;100857.25;10415365;28;20061;-70
2022/05/07 23:02:14;;;;;;;6.78;2.33;;;;;;;9.77;89.06;100835.66;10415387;28;20038;-69
2022/05/07 23:07:15;;;;;;;6.65;2.50;;;;;;;9.23;89.34;100731.34;10414112;28;20611;-69
2022/05/07 23:12:15;;;;;;;6.32;2.15;;;;;;;8.97;89.08;100689.63;10414353;28;20119;-69
2022/05/07 23:17:16;;;;;;;5.68;2.88;;;;;;;9.84;89.41;100844.66;10414164;28;20037;-69
2022/05/07 23:22:17;;;;;;;4.65;2.17;;;;;;;9.63;89.37;100815.75;10413955;28;20508;-69
2022/05/07 23:27:18;;;;;;;7.45;2.55;;;;;;;9.38;89.43;100786.34;10414092;28;20033;-69
2022/05/07 23:32:19;;;;;;;9.20;2.95;;;;;;;9.74;89.39;100828.00;10421569;28;20057;-69
2022/05/07 23:37:19;;;;;;;4.95;2.38;;;;;;;9.93;90.09;100862.38;10433305;28;20398;-70
2022/05/07 23:42:20;;;;;;;5.30;2.97;;;;;;;9.85;90.31;100862.28;10454712;28;20033;-69
2022/05/07 23:47:21;;;;;;;5.35;2.20;;;;;;;9.89;90.42;100852.19;10414350;28;20413;-69
2022/05/07 23:52:22;;;;;;;3.88;2.42;;;;;;;9.34;90.56;100760.28;10412333;28;20065;-70
2022/05/07 23:57:23;;;;;;;4.40;2.53;;;;;;;9.56;91.05;100796.97;10412658;28;20041;-69
